Time;durP1;ratioP1;P1;durP2;ratioP2;P2;SDS_P1;SDS_P2;PMS_P1;PMS_P2;Temp;Humidity;BMP_temperature;BMP_pressure;BME280_temperature;BME280_humidity;BME280_pressure;Samples;Min_cycle;Max_cycle;Signal;HPM_P1;HPM_P2
2023/08/27 19:12:40;;;;;;;3.85;0.80;;;;;;;19.98;52.68;100000.28;5033674;28;20390;-72
2023/08/27 19:15:06;;;;;;;3.07;0.60;;;;;;;19.93;53.10;100002.31;5033694;28;20034;-73
2023/08/27 19:17:32;;;;;;;3.60;0.60;;;;;;;19.93;53.30;100007.69;5029757;28;20014;-72
2023/08/27 19:19:57;;;;;;;5.45;1.00;;;;;;;19.91;53.31;100009.56;5013844;28;20042;-72
2023/08/27 19:22:24;;;;;;;5.23;1.00;;;;;;;19.90;53.23;100013.97;5013869;28;20240;-72
2023/08/27 19:24:49;;;;;;;4.55;1.00;;;;;;;19.90;53.13;100007.78;5013933;28;20068;-73
2023/08/27 19:27:15;;;;;;;5.10;1.10;;;;;;;19.90;53.37;100010.47;5013717;28;20034;-75
2023/08/27 19:29:40;;;;;;;6.43;1.70;;;;;;;19.90;53.17;100007.78;5012311;28;20053;-73
2023/08/27 19:32:05;;;;;;;3.87;1.20;;;;;;;19.89;53.10;100000.69;5013483;28;20029;-75
2023/08/27 19:34:31;;;;;;;6.07;1.38;;;;;;;19.85;53.14;99994.63;5013618;28;20034;-74
2023/08/27 19:36:56;;;;;;;5.57;0.80;;;;;;;19.82;53.12;99993.91;5013618;28;20026;-74
2023/08/27 19:39:22;;;;;;;5.33;0.90;;;;;;;19.76;53.57;99995.94;5013631;28;20031;-75
2023/08/27 19:41:47;;;;;;;5.13;0.90;;;;;;;19.71;53.85;99991.72;5013640;28;20072;-75
2023/08/27 19:44:12;;;;;;;4.27;0.90;;;;;;;19.70;54.01;99995.34;5013652;28;20022;-76
2023/08/27 19:46:38;;;;;;;6.75;1.10;;;;;;;19.63;54.18;99989.41;5013801;28;20018;-75
2023/08/27 19:49:04;;;;;;;6.30;1.00;;;;;;;19.61;54.32;99988.63;5032929;28;20065;-75
2023/08/27 19:51:31;;;;;;;5.22;0.82;;;;;;;19.58;55.03;99980.75;5033275;28;20026;-75
2023/08/27 19:53:57;;;;;;;7.93;1.20;;;;;;;19.56;55.03;99993.31;5026636;28;20104;-76
2023/08/27 19:56:22;;;;;;;5.40;0.93;;;;;;;19.53;55.33;99993.47;5013414;28;20054;-76
2023/08/27 19:58:47;;;;;;;5.70;1.10;;;;;;;19.47;55.11;99995.47;5013536;28;20030;-75
2023/08/27 20:01:13;;;;;;;5.60;1.10;;;;;;;19.47;55.44;99999.94;5012970;28;20026;-73
2023/08/27 20:03:38;;;;;;;5.22;0.80;;;;;;;19.42;55.88;100002.84;5013135;28;20049;-74
2023/08/27 20:06:04;;;;;;;5.60;1.17;;;;;;;19.40;56.04;100002.00;5013348;28;20567;-77
2023/08/27 20:08:29;;;;;;;6.53;1.00;;;;;;;19.37;56.19;100004.81;5013240;28;20022;-80
2023/08/27 20:10:54;;;;;;;4.53;1.03;;;;;;;19.32;56.43;100007.72;5012793;28;20076;-76
2023/08/27 20:13:20;;;;;;;7.10;1.00;;;;;;;19.32;56.12;100007.72;5001465;28;20062;-75
2023/08/27 20:15:46;;;;;;;6.27;1.10;;;;;;;19.28;56.66;100003.44;5000078;28;20079;-75
2023/08/27 20:18:11;;;;;;;7.03;1.00;;;;;;;19.25;56.63;100006.25;4999423;28;20387;-76
2023/08/27 20:20:39;;;;;;;5.22;1.00;;;;;;;19.26;56.77;100002.63;4997620;28;20015;-75
2023/08/27 20:23:05;;;;;;;5.97;0.95;;;;;;;19.25;56.77;100008.06;4991925;28;20049;-75
2023/08/27 20:25:31;;;;;;;6.97;1.13;;;;;;;19.24;56.75;100001.00;4998382;28;20031;-75
2023/08/27 20:27:57;;;;;;;7.68;1.50;;;;;;;19.24;56.90;100011.66;4999989;28;20388;-75
2023/08/27 20:30:23;;;;;;;7.25;1.50;;;;;;;19.24;56.77;100009.00;4998172;28;20058;-75
2023/08/27 20:32:49;;;;;;;7.97;1.60;;;;;;;19.22;56.94;100004.59;4999422;28;20022;-77
2023/08/27 20:35:14;;;;;;;7.82;2.45;;;;;;;19.19;56.86;100010.06;4998132;28;20022;-77
2023/08/27 20:37:40;;;;;;;7.03;1.53;;;;;;;19.19;57.16;100010.06;4999551;28;20033;-76
2023/08/27 20:40:11;;;;;;;7.50;1.48;;;;;;;19.14;57.33;100011.19;4998862;28;20100;-82
2023/08/27 20:42:37;;;;;;;7.85;1.42;;;;;;;19.10;57.60;100010.47;4997589;28;20503;-83
2023/08/27 20:45:05;;;;;;;7.33;1.43;;;;;;;19.06;57.55;100007.06;4998079;28;20030;-83
2023/08/27 20:47:32;;;;;;;8.15;1.08;;;;;;;19.05;57.33;100005.34;5006571;28;20060;-84
2023/08/27 20:49:57;;;;;;;4.88;1.17;;;;;;;19.04;57.75;100013.41;5003972;28;20446;-84
2023/08/27 20:52:23;;;;;;;6.57;1.55;;;;;;;19.01;57.80;100009.06;4999901;28;20031;-83
2023/08/27 20:54:49;;;;;;;9.00;1.47;;;;;;;19.00;57.77;100012.66;4999430;28;20030;-82
2023/08/27 20:57:19;;;;;;;8.40;1.00;;;;;;;19.02;57.67;100009.94;5000118;28;20083;-83
2023/08/27 20:59:44;;;;;;;4.80;0.95;;;;;;;18.99;57.76;100015.41;4999786;28;20037;-86
2023/08/27 21:02:10;;;;;;;7.23;1.00;;;;;;;18.96;58.10;100018.19;4998156;28;20030;-83
2023/08/27 21:04:35;;;;;;;5.93;1.10;;;;;;;18.93;58.32;100021.84;4998715;28;20030;-82
2023/08/27 21:07:01;;;;;;;5.03;0.80;;;;;;;18.89;58.62;100021.09;4999102;28;20030;-83
2023/08/27 21:09:26;;;;;;;7.03;1.00;;;;;;;18.84;58.79;100017.75;4998886;28;20026;-78
2023/08/27 21:11:52;;;;;;;6.60;0.83;;;;;;;18.82;58.53;100024.97;4998584;28;20125;-79
2023/08/27 21:14:18;;;;;;;5.40;0.70;;;;;;;18.77;59.20;100025.16;4997666;28;20033;-76
2023/08/27 21:16:43;;;;;;;4.80;0.77;;;;;;;18.75;59.39;100028.81;4998829;28;20030;-78
2023/08/27 21:19:09;;;;;;;6.47;0.90;;;;;;;18.67;59.56;100021.13;4996344;28;20026;-78
2023/08/27 21:21:34;;;;;;;6.93;0.90;;;;;;;18.68;59.55;100019.31;4998781;28;20023;-81
2023/08/27 21:24:00;;;;;;;5.93;1.00;;;;;;;18.65;59.67;100020.34;4997669;28;20030;-81
2023/08/27 21:26:25;;;;;;;7.47;1.00;;;;;;;18.62;59.83;100018.66;4998636;28;20073;-81
2023/08/27 21:28:51;;;;;;;7.93;1.13;;;;;;;18.57;60.03;100009.97;4997471;28;20026;-82
2023/08/27 21:31:17;;;;;;;6.80;1.30;;;;;;;18.51;60.29;100012.91;4998552;28;20026;-82
2023/08/27 21:33:43;;;;;;;8.23;0.98;;;;;;;18.48;60.31;100021.91;4998081;28;20037;-82
2023/08/27 21:36:09;;;;;;;6.32;0.80;;;;;;;18.45;60.58;100021.16;4997283;28;20534;-81
2023/08/27 21:38:34;;;;;;;4.97;1.00;;;;;;;18.42;60.68;100019.50;4996961;28;20022;-81
2023/08/27 21:41:00;;;;;;;5.07;0.90;;;;;;;18.36;61.08;100023.25;4998279;28;20261;-81
2023/08/27 21:43:25;;;;;;;6.93;1.10;;;;;;;18.34;60.94;100011.78;4998150;28;20023;-81
2023/08/27 21:45:50;;;;;;;6.60;1.17;;;;;;;18.33;61.13;100018.06;4996948;28;20029;-79
2023/08/27 21:48:16;;;;;;;5.83;0.93;;;;;;;18.32;61.40;100015.44;5010377;28;20109;-79
2023/08/27 21:50:41;;;;;;;5.45;1.02;;;;;;;18.30;61.47;100023.53;5017567;28;20498;-79
2023/08/27 21:53:07;;;;;;;4.20;0.80;;;;;;;18.27;61.50;100026.31;5017647;28;20113;-83
2023/08/27 21:55:33;;;;;;;7.83;1.10;;;;;;;18.23;61.44;100019.38;4998647;28;20030;-81
2023/08/27 21:57:58;;;;;;;5.55;1.08;;;;;;;18.21;61.86;100024.75;4993721;28;20027;-82
2023/08/27 22:00:24;;;;;;;6.83;1.10;;;;;;;18.21;62.05;100023.91;4997990;28;20056;-83
2023/08/27 22:02:53;;;;;;;6.65;1.10;;;;;;;18.18;61.73;100021.31;4997849;28;20026;-80
2023/08/27 22:05:19;;;;;;;8.25;1.00;;;;;;;18.19;61.81;100020.41;4994033;28;20561;-84
2023/08/27 22:07:44;;;;;;;5.23;1.00;;;;;;;18.18;61.89;100029.31;4990349;28;20104;-83
2023/08/27 22:10:10;;;;;;;8.97;0.90;;;;;;;18.16;62.14;100033.84;4993685;28;20109;-83
2023/08/27 22:12:38;;;;;;;9.90;1.90;;;;;;;18.16;62.11;100026.75;4994636;28;20053;-82
2023/08/27 22:15:04;;;;;;;6.82;1.10;;;;;;;18.14;62.02;100028.59;4996315;28;20033;-82
2023/08/27 22:17:30;;;;;;;6.30;1.13;;;;;;;18.12;62.31;100038.44;4986681;28;20015;-81
2023/08/27 22:19:55;;;;;;;6.07;1.30;;;;;;;18.12;62.28;100035.78;5003483;28;20041;-82
2023/08/27 22:22:21;;;;;;;11.90;1.20;;;;;;;18.08;62.22;100040.34;4994988;28;20030;-81
2023/08/27 22:24:46;;;;;;;7.50;0.80;;;;;;;18.06;62.49;100036.88;4992427;28;20065;-84
2023/08/27 22:27:12;;;;;;;9.50;1.43;;;;;;;18.06;62.29;100036.88;4990973;28;20030;-81
2023/08/27 22:29:38;;;;;;;8.52;1.05;;;;;;;18.03;62.70;100031.69;4995165;28;20073;-81
2023/08/27 22:32:03;;;;;;;6.13;0.90;;;;;;;18.02;62.83;100040.59;4995961;28;20034;-81
2023/08/27 22:34:29;;;;;;;6.90;0.95;;;;;;;18.04;62.66;100038.75;4995709;28;20018;-81
2023/08/27 22:36:54;;;;;;;5.93;1.10;;;;;;;18.01;62.80;100036.19;4996522;28;20022;-79
2023/08/27 22:39:19;;;;;;;4.13;0.70;;;;;;;18.00;62.91;100033.56;4995683;28;20036;-79
2023/08/27 22:41:45;;;;;;;4.83;0.90;;;;;;;18.00;63.06;100036.22;4995736;28;20019;-79
2023/08/27 22:44:10;;;;;;;6.03;0.93;;;;;;;18.01;62.90;100035.28;4995251;28;20025;-78
2023/08/27 22:46:36;;;;;;;4.37;0.60;;;;;;;18.01;62.94;100032.63;4996610;28;20399;-78
2023/08/27 22:49:02;;;;;;;9.03;0.93;;;;;;;17.99;63.19;100032.69;5016523;28;20439;-77
2023/08/27 22:51:28;;;;;;;5.93;1.10;;;;;;;17.94;63.32;100026.66;5016488;28;20281;-78
2023/08/27 22:53:53;;;;;;;4.93;0.80;;;;;;;17.92;63.64;100028.50;5008591;28;20109;-78
2023/08/27 22:56:19;;;;;;;7.57;0.73;;;;;;;17.90;63.78;100023.25;4997085;28;20077;-78
2023/08/27 22:58:44;;;;;;;6.90;1.00;;;;;;;17.86;64.01;100018.09;4996976;28;20031;-78
2023/08/27 23:01:11;;;;;;;3.60;0.73;;;;;;;17.83;63.94;100019.06;4996852;28;20395;-78
2023/08/27 23:03:37;;;;;;;10.77;1.27;;;;;;;17.81;64.26;100020.09;4996676;28;20030;-78
2023/08/27 23:06:04;;;;;;;4.60;0.80;;;;;;;17.79;64.46;100021.00;4997043;28;20399;-78
2023/08/27 23:08:30;;;;;;;5.78;0.82;;;;;;;17.81;64.33;100014.75;4996937;28;20053;-77
2023/08/27 23:10:55;;;;;;;5.93;0.75;;;;;;;17.74;64.57;100020.31;4995587;28;20089;-78
2023/08/27 23:13:21;;;;;;;6.63;0.90;;;;;;;17.75;64.72;100022.06;5015689;28;20026;-78
2023/08/27 23:15:46;;;;;;;6.68;1.23;;;;;;;17.71;64.75;100015.09;5016552;28;20018;-78
2023/08/27 23:18:15;;;;;;;7.13;0.90;;;;;;;17.71;64.78;100023.06;5006572;28;20026;-78
2023/08/27 23:20:41;;;;;;;6.07;0.88;;;;;;;17.69;65.12;100014.28;4995857;28;20033;-78
2023/08/27 23:23:07;;;;;;;9.70;0.87;;;;;;;17.69;65.06;100022.25;4995628;28;20034;-78
2023/08/27 23:25:35;;;;;;;6.68;0.80;;;;;;;17.65;65.15;100026.84;4996725;28;20034;-79
2023/08/27 23:28:00;;;;;;;7.40;0.90;;;;;;;17.63;65.44;100018.06;4996674;28;20026;-79
2023/08/27 23:30:26;;;;;;;5.70;0.80;;;;;;;17.62;65.39;100023.44;4996960;28;20022;-78
2023/08/27 23:32:51;;;;;;;8.80;1.23;;;;;;;17.57;65.70;100023.59;4996362;28;20399;-79
2023/08/27 23:35:17;;;;;;;4.70;0.77;;;;;;;17.56;66.05;100029.00;4996780;28;20105;-78
2023/08/27 23:37:42;;;;;;;4.57;0.83;;;;;;;17.53;66.11;100018.47;4996781;28;20041;-79
2023/08/27 23:40:09;;;;;;;8.27;1.20;;;;;;;17.48;66.47;100019.50;4995234;28;20029;-80
2023/08/27 23:42:35;;;;;;;10.02;1.08;;;;;;;17.46;66.70;100021.31;4996779;28;20419;-78
2023/08/27 23:45:01;;;;;;;6.30;0.90;;;;;;;17.43;66.51;100021.44;4996619;28;20042;-78
2023/08/27 23:47:26;;;;;;;8.13;1.60;;;;;;;17.42;66.80;100014.38;5004499;28;20024;-78
2023/08/27 23:49:52;;;;;;;7.43;1.40;;;;;;;17.42;66.70;100021.50;5019686;28;20025;-78
2023/08/27 23:52:17;;;;;;;6.20;1.00;;;;;;;17.40;67.21;100016.22;5020576;28;20022;-78
2023/08/27 23:54:42;;;;;;;7.55;0.98;;;;;;;17.37;67.21;100011.03;5007220;28;20133;-78
2023/08/27 23:57:08;;;;;;;9.93;1.00;;;;;;;17.36;67.33;100018.16;4999336;28;20511;-78
2023/08/27 23:59:33;;;;;;;7.10;0.90;;;;;;;17.34;67.55;100016.47;5000226;28;20026;-78
